createdAt,value
2023-03-27T02:43:29.859Z,28.18
2023-03-27T02:47:30.056Z,28.20
2023-03-27T02:51:30.044Z,28.25
2023-03-27T02:55:30.211Z,28.20
2023-03-27T02:59:30.324Z,28.21
2023-03-27T03:03:30.590Z,28.21
2023-03-27T03:07:30.604Z,28.25
2023-03-27T03:11:30.793Z,28.24
2023-03-27T03:15:30.926Z,28.26
2023-03-27T03:19:31.097Z,28.21
2023-03-27T03:23:31.217Z,28.26
2023-03-27T03:27:31.316Z,28.25
2023-03-27T03:31:31.463Z,28.21
2023-03-27T03:35:31.645Z,28.24
2023-03-27T03:39:32.131Z,28.23
2023-03-27T03:43:31.935Z,28.28
2023-03-27T03:47:32.197Z,28.26
2023-03-27T03:51:32.271Z,28.28
2023-03-27T03:55:32.441Z,28.26
2023-03-27T03:59:32.645Z,28.26
2023-03-27T04:03:32.912Z,28.12
2023-03-27T04:07:32.964Z,27.91
2023-03-27T04:11:33.088Z,27.67
2023-03-27T04:15:33.268Z,27.45
2023-03-27T04:19:33.453Z,27.26
2023-03-27T04:23:33.583Z,27.16
2023-03-27T04:27:33.783Z,27.01
2023-03-27T04:31:34.052Z,26.88
2023-03-27T04:35:34.263Z,26.96
2023-03-27T04:39:34.410Z,27.09
2023-03-27T04:43:34.391Z,27.09
2023-03-27T04:47:34.371Z,27.13
2023-03-27T04:51:34.296Z,27.16
2023-03-27T04:55:34.261Z,27.05
2023-03-27T04:59:34.278Z,27.11
2023-03-27T05:03:34.177Z,27.07
2023-03-27T05:07:34.114Z,27.13
2023-03-27T05:11:34.097Z,27.13
2023-03-27T05:15:34.045Z,27.10
2023-03-27T05:19:34.066Z,27.07
2023-03-27T05:23:34.032Z,27.04
2023-03-27T05:27:34.039Z,27.07
2023-03-27T05:31:33.945Z,27.10
2023-03-27T05:35:33.995Z,27.24
2023-03-27T05:39:33.952Z,28.96
2023-03-27T05:43:34.152Z,29.50
2023-03-27T05:47:33.813Z,29.63
2023-03-27T05:51:33.729Z,30.45
2023-03-27T05:55:33.739Z,30.26
2023-03-27T05:59:33.674Z,30.29
2023-03-27T06:03:33.851Z,31.18
2023-03-27T06:07:33.770Z,30.59
2023-03-27T06:11:33.871Z,30.70
2023-03-27T06:15:34.031Z,31.09
2023-03-27T06:19:34.139Z,30.30
2023-03-27T06:23:34.263Z,30.23
2023-03-27T06:27:34.359Z,30.39
2023-03-27T06:31:34.443Z,30.30
2023-03-27T06:35:34.582Z,30.09
2023-03-27T06:39:34.722Z,30.22
2023-03-27T06:43:34.705Z,30.26
2023-03-27T06:47:44.506Z,29.94
2023-03-27T06:51:35.646Z,29.83
2023-03-27T06:55:34.603Z,29.67
2023-03-27T06:59:34.640Z,29.52
2023-03-27T07:03:34.556Z,29.42
2023-03-27T07:07:34.574Z,29.29
2023-03-27T07:11:34.453Z,29.28
2023-03-27T07:15:34.466Z,29.23
2023-03-27T07:19:34.523Z,29.15
2023-03-27T07:23:34.595Z,29.21
2023-03-27T07:30:11.043Z,28.84
2023-03-27T07:34:11.305Z,28.83
2023-03-27T07:38:11.258Z,28.71
2023-03-27T07:42:10.869Z,28.69
2023-03-27T07:46:10.861Z,28.73
2023-03-27T07:50:10.813Z,28.86
2023-03-27T07:54:10.796Z,28.95
2023-03-27T07:58:10.773Z,28.91
2023-03-27T08:02:10.687Z,29.01
2023-03-27T08:06:10.676Z,28.85
2023-03-27T08:10:10.654Z,28.96
2023-03-27T08:14:10.627Z,28.88
2023-03-27T08:18:10.845Z,28.83
2023-03-27T08:22:10.896Z,28.56
2023-03-27T08:26:10.867Z,25.66
2023-03-27T08:30:11.045Z,25.78
2023-03-27T08:34:11.312Z,25.09
2023-03-27T08:38:23.643Z,26.08
2023-03-27T08:42:12.087Z,27.06
2023-03-27T08:46:11.028Z,27.26
2023-03-27T08:50:11.017Z,27.16
2023-03-27T08:54:11.144Z,27.40
2023-03-27T08:58:11.336Z,27.55
2023-03-27T09:02:11.687Z,27.68
2023-03-27T09:06:15.229Z,27.74
2023-03-27T09:10:12.245Z,27.76
2023-03-27T09:14:11.576Z,27.79
2023-03-27T09:18:11.489Z,28.02
2023-03-27T09:22:11.432Z,27.90
2023-03-27T09:26:11.485Z,27.98
2023-03-27T09:30:11.360Z,28.20
2023-03-27T09:34:11.833Z,28.06
2023-03-27T09:38:11.232Z,28.03
2023-03-27T09:42:11.230Z,28.46
2023-03-27T09:46:11.216Z,28.14
2023-03-27T09:50:11.240Z,28.16
2023-03-27T09:54:11.101Z,28.18
2023-03-27T09:58:11.084Z,28.10
2023-03-27T10:02:11.060Z,27.95
2023-03-27T10:06:11.237Z,28.16
2023-03-27T10:10:11.477Z,28.28
2023-03-27T10:14:11.692Z,28.97
2023-03-27T10:18:11.969Z,28.93
2023-03-27T10:22:14.429Z,28.65
2023-03-27T10:26:12.304Z,27.87
2023-03-27T10:30:12.078Z,23.76
2023-03-27T10:34:11.989Z,25.55
2023-03-27T10:38:11.966Z,26.24
2023-03-27T10:42:11.953Z,26.32
2023-03-27T10:46:11.861Z,26.51
2023-03-27T10:50:11.859Z,26.55
2023-03-27T10:54:11.885Z,26.72
2023-03-27T10:58:11.747Z,26.93
2023-03-27T11:02:11.731Z,27.15
2023-03-27T11:06:11.711Z,26.82
2023-03-27T11:10:11.716Z,26.89
2023-03-27T11:14:11.973Z,27.01
2023-03-27T11:18:12.174Z,27.10
2023-03-27T11:22:12.796Z,26.95
2023-03-27T11:26:12.491Z,26.61
2023-03-27T11:30:12.833Z,26.20
2023-03-27T11:34:12.649Z,26.13
2023-03-27T11:38:12.635Z,25.93
2023-03-27T11:42:12.623Z,25.94
2023-03-27T11:46:12.607Z,25.78
2023-03-27T11:50:12.578Z,25.71
2023-03-27T11:54:12.472Z,25.60
2023-03-27T11:58:12.416Z,25.48
2023-03-27T12:02:12.477Z,25.49
2023-03-27T12:06:12.409Z,24.97
2023-03-27T12:10:12.346Z,24.76
2023-03-27T12:14:18.096Z,26.00
2023-03-27T12:18:13.317Z,26.26
2023-03-27T12:22:22.885Z,26.51
2023-03-27T12:26:13.821Z,26.64
2023-03-27T12:30:12.313Z,26.88
2023-03-27T12:34:12.515Z,27.03
2023-03-27T12:38:12.665Z,27.10
2023-03-27T12:42:12.820Z,27.27
2023-03-27T12:46:13.056Z,27.32
2023-03-27T12:50:13.128Z,27.29
2023-03-27T12:54:13.220Z,27.28
2023-03-27T12:58:13.462Z,23.57
2023-03-27T13:02:13.498Z,24.59
2023-03-27T13:06:13.547Z,24.88
2023-03-27T13:10:13.526Z,24.65
2023-03-27T13:14:13.661Z,25.40
2023-03-27T13:18:14.006Z,25.42
2023-03-27T13:22:13.789Z,25.25
2023-03-27T13:26:13.826Z,24.73
2023-03-27T13:30:13.737Z,24.83
2023-03-27T13:34:13.760Z,25.05
2023-03-27T13:38:13.690Z,24.95
2023-03-27T13:42:16.929Z,25.21
2023-03-27T13:46:13.882Z,25.02
2023-03-27T13:50:14.278Z,24.97
2023-03-27T13:54:13.502Z,24.90
2023-03-27T13:58:13.506Z,24.78
2023-03-27T14:02:13.478Z,24.66
2023-03-27T14:06:13.471Z,24.55
2023-03-27T14:10:13.486Z,24.52
2023-03-27T14:14:13.390Z,24.49
2023-03-27T14:18:13.401Z,24.46
2023-03-27T14:22:13.344Z,24.55
2023-03-27T14:26:13.304Z,24.58
2023-03-27T14:30:13.258Z,24.72
2023-03-27T14:34:13.268Z,24.62
2023-03-27T14:38:13.221Z,24.66
2023-03-27T14:42:13.180Z,24.68
2023-03-27T14:46:13.144Z,24.66
2023-03-27T14:50:13.068Z,24.72
2023-03-27T14:54:13.094Z,24.74
2023-03-27T14:58:13.040Z,24.72
2023-03-27T15:02:13.005Z,24.81
2023-03-27T15:06:12.978Z,24.78
2023-03-27T15:10:12.909Z,24.84
2023-03-27T15:14:12.897Z,24.85
2023-03-27T15:18:12.864Z,24.85
2023-03-27T15:22:12.861Z,24.84
2023-03-27T15:26:12.798Z,24.85
2023-03-27T15:30:12.739Z,24.85
2023-03-27T15:34:12.710Z,24.86
2023-03-27T15:38:12.701Z,24.82
2023-03-27T15:42:12.654Z,24.81
2023-03-27T15:46:12.646Z,24.81
2023-03-27T15:50:12.576Z,24.89
2023-03-27T15:54:12.550Z,24.86
2023-03-27T15:58:12.530Z,24.92
2023-03-27T16:02:12.533Z,24.95
2023-03-27T16:06:12.426Z,25.00
2023-03-27T16:10:12.395Z,24.98
2023-03-27T16:14:12.381Z,25.04
2023-03-27T16:18:12.363Z,25.04
2023-03-27T16:22:12.332Z,25.08
2023-03-27T16:26:12.267Z,25.08
2023-03-27T16:30:12.295Z,25.09
2023-03-27T16:34:12.218Z,25.17
2023-03-27T16:38:13.160Z,25.14
2023-03-27T16:42:12.164Z,25.14
2023-03-27T16:46:12.118Z,25.17
2023-03-27T16:50:12.072Z,25.20
2023-03-27T16:54:12.045Z,25.20
2023-03-27T16:58:11.999Z,25.23
2023-03-27T17:02:12.098Z,25.21
2023-03-27T17:06:12.133Z,25.21
2023-03-27T17:10:12.189Z,25.20
2023-03-27T17:14:12.295Z,25.19
2023-03-27T17:18:12.371Z,25.19
2023-03-27T17:22:12.412Z,25.26
2023-03-27T17:26:13.517Z,25.25
2023-03-27T17:30:12.417Z,25.27
2023-03-27T17:34:12.369Z,25.25
2023-03-27T17:38:12.357Z,25.30
2023-03-27T17:42:12.314Z,25.31
2023-03-27T17:46:12.300Z,25.31
2023-03-27T17:50:12.256Z,25.32
2023-03-27T17:54:12.272Z,25.33
2023-03-27T17:58:12.177Z,25.35
2023-03-27T18:02:12.388Z,25.37
2023-03-27T18:06:12.131Z,25.33
2023-03-27T18:10:12.095Z,25.39
2023-03-27T18:14:12.070Z,25.40
2023-03-27T18:18:12.069Z,25.43
2023-03-27T18:22:11.988Z,25.47
2023-03-27T18:26:11.953Z,25.46
2023-03-27T18:30:11.987Z,25.48
2023-03-27T18:34:12.131Z,25.45
2023-03-27T18:38:12.303Z,25.69
2023-03-27T18:42:12.373Z,25.91
2023-03-27T18:46:12.563Z,25.86
2023-03-27T18:50:12.696Z,25.73
2023-03-27T18:54:12.865Z,25.65
2023-03-27T18:58:13.109Z,25.54
2023-03-27T19:02:13.355Z,25.52
2023-03-27T19:06:13.562Z,25.42
2023-03-27T19:10:13.422Z,25.39
2023-03-27T19:14:13.442Z,25.33
2023-03-27T19:18:13.485Z,25.34
2023-03-27T19:22:13.356Z,25.28
2023-03-27T19:26:13.312Z,25.27
2023-03-27T19:30:13.332Z,25.38
2023-03-27T19:34:13.277Z,25.33
2023-03-27T19:38:13.266Z,25.44
2023-03-27T19:42:13.178Z,25.50
2023-03-27T19:46:16.641Z,25.57
2023-03-27T19:50:13.093Z,25.57
2023-03-27T19:54:13.058Z,25.60
2023-03-27T19:58:13.010Z,25.68
2023-03-27T20:02:13.017Z,25.68
2023-03-27T20:10:12.963Z,25.78
2023-03-27T20:14:12.889Z,25.78
2023-03-27T20:18:13.097Z,25.82
2023-03-27T20:22:13.241Z,25.82
2023-03-27T20:26:13.528Z,25.85
2023-03-27T20:30:13.667Z,25.92
2023-03-27T20:34:13.883Z,25.96
2023-03-27T20:38:14.107Z,25.94
2023-03-27T20:42:14.312Z,26.00
2023-03-27T20:46:14.545Z,26.01
2023-03-27T20:50:14.462Z,26.03
2023-03-27T20:54:14.431Z,26.07
2023-03-27T20:58:14.421Z,26.13
2023-03-27T21:02:14.390Z,26.14
2023-03-27T21:06:14.374Z,26.17
2023-03-27T21:10:14.314Z,26.18
2023-03-27T21:14:14.256Z,26.21
2023-03-27T21:18:14.244Z,26.25
2023-03-27T21:22:14.234Z,26.26
2023-03-27T21:26:14.156Z,26.27
2023-03-27T21:30:15.593Z,26.28
2023-03-27T21:34:14.408Z,26.30
2023-03-27T21:38:14.393Z,26.32
2023-03-27T21:42:14.355Z,26.33
2023-03-27T21:46:14.374Z,26.38
2023-03-27T21:50:14.264Z,26.40
2023-03-27T21:54:14.220Z,26.50
2023-03-27T21:58:14.221Z,26.47
2023-03-27T22:02:14.149Z,26.50
2023-03-27T22:06:14.397Z,26.50
2023-03-27T22:10:14.116Z,26.55
2023-03-27T22:14:14.200Z,26.55
2023-03-27T22:18:14.193Z,26.59
2023-03-27T22:22:14.077Z,26.56
2023-03-27T22:26:14.055Z,26.61
2023-03-27T22:30:14.009Z,26.61
2023-03-27T22:34:13.988Z,26.62
2023-03-27T22:38:13.890Z,26.70
2023-03-27T22:42:13.903Z,26.68
2023-03-27T22:46:13.881Z,26.72
2023-03-27T22:50:13.850Z,26.70
2023-03-27T22:54:13.882Z,26.69
2023-03-27T22:58:14.116Z,26.71
2023-03-27T23:02:14.314Z,26.74
2023-03-27T23:06:14.483Z,26.75
2023-03-27T23:10:14.447Z,26.77
2023-03-27T23:14:14.437Z,26.82
2023-03-27T23:18:14.344Z,26.81
2023-03-27T23:22:14.321Z,26.82
2023-03-27T23:26:14.310Z,26.85
2023-03-27T23:30:14.272Z,26.86
2023-03-27T23:34:14.254Z,26.89
2023-03-27T23:38:15.030Z,26.84
2023-03-27T23:42:14.132Z,26.90
2023-03-27T23:46:14.190Z,26.88
2023-03-27T23:50:14.063Z,26.90
2023-03-27T23:54:14.010Z,26.94
2023-03-27T23:58:14.030Z,26.91
